Metar Cercanos

 

LEPA - Palma De Mallorc, Spain
Distance from station: ONO 38km
Actualización: Sat, 23-Jan-2021 6:00am CET
Few Clouds
Few Clouds
 Viento del O
Viento: O 19 km/h
Temperatura: 12°C
Rocío: 7°C
Humedad: 72%
Barómetro: 1012 hPa
Clouds: Few Clouds
Visibility: 10 km
Cloud details: Few Clouds 671 m
2021/01/23 05:00 LEPA 230500Z 27010KT 9999 FEW022 12/07 Q1012 NOSIG
LEMH - Mahon/Menorca Is, Spain
Distance from station: ENE 105km
Actualización: Sat, 23-Jan-2021 6:00am CET
Despejado
Despejado
 Viento del ONO
Viento: ONO 26 km/h, Racha: 44 km/h
Temperatura: 12°C
Rocío: 3°C
Humedad: 54%
Barómetro: 1010 hPa
Resumen: Despejado
Visibility: greater than 10 km
2021/01/23 05:00 LEMH 230500Z 29014G24KT 250V330 CAVOK 12/03 Q1010
 
LEIB - Ibiza/Es Codola, Spain
Distance from station: OSO 165km
Actualización: Sat, 23-Jan-2021 6:00am CET
Despejado
Despejado
 Viento del O
Viento: O 28 km/h
Temperatura: 13°C
Rocío: 4°C
Humedad: 55%
Barómetro: 1014 hPa
Resumen: Despejado
Visibility: greater than 10 km
2021/01/23 05:00 LEIB 230500Z 26015KT CAVOK 13/04 Q1014 NOSIG
LEBL - Barcelona Airpor, Spain
Distance from station: NNO 225km
Actualización: Sat, 23-Jan-2021 6:00am CET
Few Clouds
Few Clouds
 Viento del OSO
Viento: OSO 35 km/h
Temperatura: 11°C
Rocío: 2°C
Humedad: 54%
Barómetro: 1010 hPa
Clouds: Few Clouds
Visibility: 10 km
Cloud details: Few Clouds 914 m
2021/01/23 05:00 LEBL 230500Z 25019KT 220V280 9999 FEW030 11/02 Q1010 NOSIG
 
LEVC - Valencia (civ/Mi, Spain
Distance from station: NO 188km
Actualización: Sat, 23-Jan-2021 6:00am CET
Few Clouds
Few Clouds
 Viento del OSO
Viento: OSO 22 km/h
Temperatura: 11°C
Rocío: 3°C
Humedad: 58%
Barómetro: 1014 hPa
Clouds: Few Clouds
Visibility: 10 km
Cloud details: Few Clouds 1219 m
2021/01/23 05:00 LEVC 230500Z 25012KT 9999 FEW040 11/03 Q1014 NOSIG
LEGE - Gerona/Costa Bra, Spain
Distance from station: N 276km
Actualización: Sat, 23-Jan-2021 6:00am CET
Despejado
Despejado
 Viento del ONO
Viento: ONO 4 km/h
Temperatura: 0°C
Rocío: -2°C
Humedad: 87%
Barómetro: 1008 hPa
Resumen: Despejado
Visibility: greater than 10 km
2021/01/23 05:00 LEGE 230500Z 29002KT CAVOK M00/M02 Q1008
 
LEAL - Alicante/El Alte, Spain
Distance from station: OSO 344km
Actualización: Sat, 23-Jan-2021 6:00am CET
Few Clouds
Few Clouds
 Viento del ONO
Viento: ONO 11 km/h
Temperatura: 7°C
Sensación frio: 5°C
Rocío: 2°C
Humedad: 71%
Barómetro: 1017 hPa
Clouds: Few Clouds
Visibility: 10 km
Cloud details: Few Clouds 1829 m
2021/01/23 05:00 LEAL 230500Z 30006KT 9999 FEW060 07/02 Q1017 NOSIG
LEAM - Almeria Airport, Spain
Distance from station: SSO 56km
Actualización: Sat, 23-Jan-2021 6:00am CET
Despejado
Despejado
 Viento del NNO
Viento: NNO 13 km/h
Temperatura: 11°C
Rocío: 2°C
Humedad: 54%
Barómetro: 1017 hPa
Resumen: Despejado
Visibility: greater than 10 km
2021/01/23 05:00 LEAM 230500Z 34007KT CAVOK 11/02 Q1017
 
LEZG - Zaragoza (mil/Ci, Spain
Distance from station: NO 431km
Actualización: Sat, 23-Jan-2021 6:00am CET
Despejado
Despejado
 Viento del OSO
Viento: OSO 19 km/h
Temperatura: 8°C
Sensación frio: 4°C
Rocío: 2°C
Humedad: 66%
Barómetro: 1011 hPa
Resumen: Despejado
Visibility: greater than 10 km
2021/01/23 05:00 LEZG 230500Z 24010KT CAVOK 08/02 Q1011
LEMD - Madrid/Barajas, Spain
Distance from station: ONO 234km
Actualización: Sat, 23-Jan-2021 6:00am CET
Muy nuboso
Muy nuboso
 Viento del SO
Viento: SO 22 km/h
Temperatura: 5°C
Sensación frio: 1°C
Rocío: 3°C
Humedad: 87%
Barómetro: 1016 hPa
Clouds: Muy nuboso
Visibility: 10 km
Cloud details: Muy nuboso 1737 m
2021/01/23 05:00 LEMD 230500Z 23012KT 9999 BKN057 05/03 Q1016 NOSIG
 
LEGR - Granada Airport, Spain
Distance from station: OSO 62km
Actualización: Sat, 23-Jan-2021 6:00am CET
Parcialmente nuboso
Parcialmente nuboso
 Viento del varies
Viento: varies 2 km/h
Temperatura: 6°C
Rocío: 5°C
Humedad: 93%
Barómetro: 1021 hPa
Clouds: Parcialmente nuboso
Visibility: 10 km
Cloud details: Few Clouds 1219 m
Parcialmente nuboso 1829 m
2021/01/23 05:00 LEGR 230500Z VRB01KT 9999 FEW040 SCT060 06/05 Q1021
LEMG - Malaga (civ/Mil), Spain
Distance from station: OSO 227km
Actualización: Sat, 23-Jan-2021 6:00am CET
Parcialmente nuboso
Parcialmente nuboso
 Viento del ONO
Viento: ONO 13 km/h
Temperatura: 11°C
Rocío: 8°C
Humedad: 82%
Barómetro: 1021 hPa
Clouds: Parcialmente nuboso
Visibility: 10 km
Cloud details: Parcialmente nuboso 1676 m
2021/01/23 05:00 LEMG 230500Z 30007KT 9999 SCT055 11/08 Q1021 NOSIG
 
LEZL - Sevilla (civ/Mil, Spain
Distance from station: S 318km
Actualización: Sat, 23-Jan-2021 6:00am CET
Despejado
Despejado
 Viento del varies
Viento: varies 4 km/h
Temperatura: 9°C
Rocío: 9°C
Humedad: 100%
Barómetro: 1022 hPa
Resumen: Despejado
Visibility: greater than 10 km
2021/01/23 05:00 LEZL 230500Z VRB02KT CAVOK 09/09 Q1022 NOSIG
LEVT - Vitoria, Spain
Distance from station: NO 226km
Actualización: Sat, 23-Jan-2021 6:00am CET
Few Clouds
Few Clouds
 Viento del SO
Viento: SO 22 km/h
Temperatura: 6°C
Sensación frio: 2°C
Rocío: 2°C
Humedad: 76%
Barómetro: 1009 hPa
Clouds: Few Clouds
Visibility: 10 km
Cloud details: Few Clouds 1067 m
2021/01/23 05:00 LEVT 230500Z 22012KT 190V260 9999 FEW035 06/02 Q1009
 
LEBB - Bilbao/Sondica, Spain
Distance from station: NNO 235km
Actualización: Sat, 23-Jan-2021 6:00am CET
Despejado
Despejado
 Viento del SO
Viento: SO 22 km/h
Temperatura: 11°C
Rocío: 3°C
Humedad: 58%
Barómetro: 1007 hPa
Resumen: Despejado
Visibility: greater than 10 km
2021/01/23 05:00 LEBB 230500Z 22012KT 160V260 CAVOK 11/03 Q1007 NOSIG
LESO - San Sebastian/Fu, Spain
Distance from station: N 231km
Actualización: Sat, 23-Jan-2021 6:00am CET
Despejado
Despejado
 Viento del SO
Viento: SO 22 km/h
Temperatura: 11°C
Rocío: 3°C
Humedad: 58%
Barómetro: 1007 hPa
Resumen: Despejado
Visibility: greater than 10 km
2021/01/23 05:00 LESO 230500Z 23012KT 210V270 CAVOK 11/03 Q1007
 
LEVD - Valladolid(Mil/C, Spain
Distance from station: ONO 239km
Actualización: Sat, 23-Jan-2021 6:00am CET
Lluvia débil, Cubierto
Lluvia débil, Cubierto
 Viento del OSO
Viento: OSO 35 km/h
Temperatura: 4°C
Sensación frio: -2°C
Rocío: 3°C
Humedad: 93%
Barómetro: 1012 hPa
Resumen: Lluvia débil
Clouds: Cubierto
Visibility: 9 km
Cloud details: Cubierto 244 m
2021/01/23 05:00 LEVD 230500Z AUTO 24019KT 9000 -RA OVC008 04/03 Q1012
LESA - Salamanca (civ/M, Spain
Distance from station: ONO 349km
Actualización: Sat, 23-Jan-2021 6:00am CET
Muy nuboso
Muy nuboso
 Viento del SO
Viento: SO 28 km/h
Temperatura: 4°C
Sensación frio: -1°C
Rocío: 2°C
Humedad: 87%
Barómetro: 1015 hPa
Clouds: Muy nuboso
Visibility: 10 km
Cloud details: Muy nuboso 488 m
Muy nuboso 701 m
Muy nuboso 1067 m
2021/01/23 05:00 LESA 230500Z AUTO 23015KT 9999 BKN016 BKN023 BKN035 04/02 Q1015
 
LEXJ - Santander/Paraya, Spain
Distance from station: NNO 247km
Actualización: Sat, 23-Jan-2021 6:00am CET
Parcialmente nuboso
Parcialmente nuboso
 Viento del SO
Viento: SO 11 km/h
Temperatura: 10°C
Sensación frio: 8°C
Rocío: 3°C
Humedad: 62%
Barómetro: 1007 hPa
Clouds: Parcialmente nuboso
Visibility: 10 km
Cloud details: Parcialmente nuboso 2438 m
2021/01/23 05:00 LEXJ 230500Z 23006KT 190V260 9999 SCT080 10/03 Q1007
LEAS - Asturias/Aviles, Spain
Distance from station: NO 214km
Actualización: Sat, 23-Jan-2021 6:00am CET
Lluvia débil, Muy nuboso
Lluvia débil, Muy nuboso
 Viento del O
Viento: O 35 km/h, Racha: 57 km/h
Temperatura: 11°C
Rocío: 4°C
Humedad: 62%
Barómetro: 1007 hPa
Resumen: Lluvia débil
Clouds: Muy nuboso
Visibility: 10 km
Cloud details: Muy nuboso 1676 m
2021/01/23 05:00 LEAS 230500Z 27019G31KT 240V300 9999 -RA BKN055 11/04 Q1007 NOSIG
 
LECO - La Coruna/Alvedr, Spain
Distance from station: ONO 222km
Actualización: Sat, 23-Jan-2021 6:00am CET
Lluvia débil, Muy nuboso
Lluvia débil, Muy nuboso
 Viento del O
Viento: O 24 km/h, Racha: 43 km/h
Temperatura: 11°C
Rocío: 8°C
Humedad: 82%
Barómetro: 1010 hPa
Resumen: Lluvia débil
Clouds: Muy nuboso
Visibility: 8 km
Cloud details: Few Clouds 914 m
Parcialmente nuboso 1219 m
Muy nuboso 1463 m
2021/01/23 05:00 LECO 230500Z 26013G23KT 210V300 8000 -RA FEW030 SCT040 BKN048 11/08 Q1010 TEMPO 3000 RA
LEVX - Vigo/Peinador, Spain
Distance from station: O 214km
Actualización: Sat, 23-Jan-2021 6:00am CET
Lluvia débil, Muy nuboso
Lluvia débil, Muy nuboso
 Viento del SSO
Viento: SSO 24 km/h
Temperatura: 10°C
Sensación frio: 7°C
Rocío: 8°C
Humedad: 88%
Barómetro: 1013 hPa
Resumen: Lluvia débil
Clouds: Muy nuboso
Visibility: 10 km
Cloud details: Parcialmente nuboso 518 m
Muy nuboso 914 m
Muy nuboso 1311 m
2021/01/23 05:00 LEVX 230500Z 21013KT 170V250 9999 -RA SCT017 BKN030 BKN043 10/08 Q1013 TEMPO 3000 RA BKN010